Time;durP1;ratioP1;P1;durP2;ratioP2;P2;SDS_P1;SDS_P2;PMS_P1;PMS_P2;Temp;Humidity;BMP_temperature;BMP_pressure;BME280_temperature;BME280_humidity;BME280_pressure;Samples;Min_cycle;Max_cycle;Signal;HPM_P1;HPM_P2
2021/05/12 00:01:14;;;;;;;13.43;2.97;;;10.00;62.40;;;;;;5017882;28;20044;-79
2021/05/12 00:03:39;;;;;;;8.10;2.42;;;10.00;62.50;;;;;;5034283;28;20025;-78
2021/05/12 00:06:06;;;;;;;8.82;2.42;;;9.90;62.50;;;;;;5034328;28;20045;-79
2021/05/12 00:08:31;;;;;;;6.85;1.95;;;9.90;62.60;;;;;;5034103;28;20029;-79
2021/05/12 00:10:57;;;;;;;8.40;2.25;;;9.90;62.70;;;;;;5017831;28;20500;-81
2021/05/12 00:13:24;;;;;;;9.88;2.28;;;9.90;62.80;;;;;;5034132;28;20415;-79
2021/05/12 00:15:50;;;;;;;8.65;2.33;;;9.80;62.90;;;;;;5051972;28;20474;-79
2021/05/12 00:18:20;;;;;;;17.40;3.33;;;9.80;63.00;;;;;;5034206;28;20029;-78
2021/05/12 00:20:47;;;;;;;10.88;3.00;;;9.80;63.10;;;;;;5017277;28;20045;-78
2021/05/12 00:23:17;;;;;;;10.80;2.55;;;9.70;63.10;;;;;;5051894;28;20096;-78
2021/05/12 00:25:43;;;;;;;6.22;2.00;;;9.70;63.20;;;;;;5033684;28;20692;-79
2021/05/12 00:28:09;;;;;;;6.70;1.98;;;9.70;63.30;;;;;;5051639;28;20116;-79
2021/05/12 00:30:34;;;;;;;7.80;2.55;;;9.60;63.30;;;;;;5017046;28;20120;-78
2021/05/12 00:33:00;;;;;;;6.72;2.28;;;9.60;63.50;;;;;;5033646;28;20083;-78
2021/05/12 00:35:26;;;;;;;8.30;2.05;;;9.50;63.60;;;;;;5017004;28;20458;-78
2021/05/12 00:37:52;;;;;;;6.97;1.88;;;9.50;63.70;;;;;;5033264;28;20143;-79
2021/05/12 00:40:18;;;;;;;9.10;2.20;;;9.50;63.80;;;;;;5051351;28;20029;-78
2021/05/12 00:42:45;;;;;;;7.32;2.00;;;9.40;63.80;;;;;;5017064;28;20029;-79
2021/05/12 00:45:14;;;;;;;8.00;1.80;;;9.40;64.00;;;;;;5033377;28;20211;-78
2021/05/12 00:47:40;;;;;;;9.40;2.05;;;9.30;64.10;;;;;;5033418;28;20044;-79
2021/05/12 00:50:07;;;;;;;5.35;1.83;;;9.30;64.00;;;;;;5033642;28;20791;-79
2021/05/12 00:52:33;;;;;;;6.85;1.85;;;9.20;64.10;;;;;;5051380;28;20079;-79
2021/05/12 00:54:59;;;;;;;5.78;1.73;;;9.10;64.40;;;;;;5033351;28;20033;-79
2021/05/12 00:57:25;;;;;;;3.88;1.50;;;9.00;64.60;;;;;;5033391;28;20094;-78
2021/05/12 00:59:52;;;;;;;6.85;1.90;;;9.00;64.80;;;;;;5051389;28;20085;-79
2021/05/12 01:02:18;;;;;;;6.07;1.90;;;8.90;64.90;;;;;;5033546;28;20025;-79
2021/05/12 01:04:44;;;;;;;7.68;2.00;;;8.80;65.10;;;;;;5016860;28;20036;-79
2021/05/12 01:07:10;;;;;;;10.60;1.85;;;8.80;65.30;;;;;;5033155;28;20386;-78
2021/05/12 01:09:36;;;;;;;4.82;1.55;;;8.80;65.30;;;;;;5017030;28;20025;-79
2021/05/12 01:12:03;;;;;;;9.13;2.30;;;8.80;65.30;;;;;;5016704;28;20039;-79
2021/05/12 01:14:30;;;;;;;10.63;2.15;;;8.80;65.30;;;;;;5033348;28;20495;-79
2021/05/12 01:16:55;;;;;;;6.18;2.03;;;8.80;65.30;;;;;;5051087;28;20029;-79
2021/05/12 01:19:22;;;;;;;3.38;1.40;;;8.80;65.30;;;;;;5016683;28;20040;-79
2021/05/12 01:21:47;;;;;;;8.63;1.85;;;8.90;65.40;;;;;;5000406;28;20102;-79
2021/05/12 01:24:13;;;;;;;5.75;1.40;;;8.80;65.30;;;;;;5016710;28;20044;-78
2021/05/12 01:26:39;;;;;;;5.20;1.90;;;8.80;65.40;;;;;;5051077;28;20029;-79
2021/05/12 01:29:06;;;;;;;7.15;1.83;;;8.80;65.40;;;;;;5017029;28;20033;-79
2021/05/12 01:31:35;;;;;;;10.55;1.60;;;8.70;65.50;;;;;;5033856;28;20032;-78
2021/05/12 01:34:03;;;;;;;6.13;1.77;;;8.60;65.60;;;;;;5037135;28;20121;-79
2021/05/12 01:36:30;;;;;;;8.05;1.60;;;8.60;65.70;;;;;;5054806;28;20029;-79
2021/05/12 01:38:57;;;;;;;6.25;1.83;;;8.60;65.80;;;;;;5020448;28;20529;-79
2021/05/12 01:41:24;;;;;;;8.07;1.70;;;8.60;65.80;;;;;;5037064;28;20037;-79
2021/05/12 01:43:51;;;;;;;9.88;2.40;;;8.60;65.90;;;;;;5036943;28;20078;-78
2021/05/12 01:46:17;;;;;;;8.70;2.30;;;8.60;66.00;;;;;;5036720;28;20463;-78
2021/05/12 01:48:43;;;;;;;8.50;1.95;;;8.60;66.10;;;;;;5020364;28;20029;-79
2021/05/12 01:51:11;;;;;;;12.60;2.38;;;8.50;66.20;;;;;;5020363;28;20513;-79
2021/05/12 01:53:37;;;;;;;12.68;2.17;;;8.50;66.30;;;;;;5036775;28;20029;-79
2021/05/12 01:56:03;;;;;;;6.72;2.20;;;8.50;66.30;;;;;;5036553;28;20025;-79
2021/05/12 01:58:29;;;;;;;3.25;1.38;;;8.40;66.50;;;;;;5020320;28;20032;-78
2021/05/12 02:00:57;;;;;;;6.15;1.88;;;8.30;66.70;;;;;;5054472;28;20021;-79
2021/05/12 02:03:23;;;;;;;5.57;1.52;;;8.30;66.80;;;;;;5036613;28;20099;-79
2021/05/12 02:05:51;;;;;;;8.07;1.95;;;8.20;67.40;;;;;;5036455;28;20420;-79
2021/05/12 02:08:20;;;;;;;4.85;1.70;;;8.20;67.00;;;;;;5036735;28;20090;-78
2021/05/12 02:10:46;;;;;;;4.88;1.45;;;8.20;67.00;;;;;;5037007;28;20110;-79
2021/05/12 02:13:13;;;;;;;6.85;2.20;;;8.20;67.00;;;;;;5020158;28;20087;-78
2021/05/12 02:15:41;;;;;;;6.25;1.83;;;8.20;67.10;;;;;;5054264;28;20482;-79
2021/05/12 02:18:07;;;;;;;4.25;1.88;;;8.10;67.20;;;;;;5019803;28;20097;-79
2021/05/12 02:20:34;;;;;;;4.85;1.90;;;8.10;67.20;;;;;;5019681;28;20041;-80
2021/05/12 02:23:03;;;;;;;2.05;1.42;;;8.20;67.30;;;;;;5019810;28;20419;-79
2021/05/12 02:25:29;;;;;;;3.33;1.57;;;8.20;67.30;;;;;;5036223;28;20013;-79
2021/05/12 02:27:55;;;;;;;9.52;1.75;;;8.20;67.30;;;;;;5054256;28;20069;-79
2021/05/12 02:30:21;;;;;;;7.07;1.70;;;8.20;67.30;;;;;;5036085;28;20059;-78
2021/05/12 02:32:47;;;;;;;10.13;2.35;;;8.20;67.30;;;;;;5019598;28;20187;-78
2021/05/12 02:35:15;;;;;;;2.55;1.50;;;8.20;67.30;;;;;;5036082;28;20021;-78
2021/05/12 02:37:41;;;;;;;4.90;1.98;;;8.20;67.30;;;;;;5053768;28;20049;-78
2021/05/12 02:40:10;;;;;;;7.65;1.63;;;8.20;67.30;;;;;;5019667;28;20399;-78
2021/05/12 02:42:36;;;;;;;6.00;1.80;;;8.20;67.40;;;;;;5053594;28;20032;-78
2021/05/12 02:45:03;;;;;;;5.57;2.08;;;8.20;67.40;;;;;;5035352;28;20025;-79
2021/05/12 02:47:29;;;;;;;3.40;1.80;;;8.20;67.40;;;;;;5035879;28;20029;-79
2021/05/12 02:49:55;;;;;;;4.00;1.83;;;8.20;67.50;;;;;;5019325;28;20033;-79
2021/05/12 02:52:20;;;;;;;8.25;1.70;;;8.20;67.50;;;;;;5035631;28;20086;-78
2021/05/12 02:54:46;;;;;;;4.95;1.80;;;8.30;67.60;;;;;;5035766;28;20086;-78
2021/05/12 02:57:12;;;;;;;6.60;1.60;;;8.30;67.60;;;;;;5035714;28;20120;-79
2021/05/12 02:59:38;;;;;;;5.10;1.67;;;8.30;67.70;;;;;;5035507;28;20135;-78
2021/05/12 03:02:04;;;;;;;6.32;1.88;;;8.20;67.70;;;;;;5035539;28;20032;-79
2021/05/12 03:04:29;;;;;;;4.68;1.55;;;8.10;67.90;;;;;;5053511;28;20104;-79
2021/05/12 03:06:58;;;;;;;5.13;1.63;;;8.10;68.20;;;;;;5035454;28;20087;-78
2021/05/12 03:09:25;;;;;;;3.97;1.60;;;8.10;68.30;;;;;;5036045;28;20036;-79
2021/05/12 03:11:51;;;;;;;7.57;2.13;;;8.00;68.50;;;;;;5018699;28;20437;-79
2021/05/12 03:14:17;;;;;;;4.40;1.70;;;8.00;68.50;;;;;;5035331;28;20032;-78
2021/05/12 03:16:43;;;;;;;4.88;1.70;;;8.00;68.40;;;;;;5018775;28;20029;-79
2021/05/12 03:19:08;;;;;;;4.72;1.67;;;7.90;68.40;;;;;;5035146;28;20040;-79
2021/05/12 03:21:34;;;;;;;5.38;2.17;;;7.90;68.40;;;;;;5035456;28;20368;-78
2021/05/12 03:24:02;;;;;;;6.20;1.75;;;7.90;68.60;;;;;;5035129;28;20021;-78
2021/05/12 03:26:28;;;;;;;12.63;2.63;;;7.90;68.70;;;;;;5035173;28;20029;-79
2021/05/12 03:28:53;;;;;;;8.02;2.55;;;7.80;68.70;;;;;;5035071;28;20032;-78
2021/05/12 03:31:19;;;;;;;7.63;2.28;;;7.80;68.80;;;;;;5034997;28;20044;-78
2021/05/12 03:33:45;;;;;;;9.15;2.58;;;7.70;69.00;;;;;;5035058;28;20074;-78
2021/05/12 03:36:11;;;;;;;7.90;2.95;;;7.70;69.10;;;;;;5034800;28;20029;-79
2021/05/12 03:38:37;;;;;;;9.07;2.75;;;7.60;69.30;;;;;;5034779;28;20498;-79
2021/05/12 03:41:04;;;;;;;9.45;2.33;;;7.60;69.50;;;;;;5034617;28;20059;-77
2021/05/12 03:43:30;;;;;;;3.33;1.98;;;7.60;69.60;;;;;;5034616;28;20025;-79
2021/05/12 03:45:57;;;;;;;7.50;2.67;;;7.60;69.50;;;;;;5034280;28;20026;-79
2021/05/12 03:48:23;;;;;;;4.45;2.22;;;7.60;69.60;;;;;;5034286;28;20044;-78
2021/05/12 03:50:48;;;;;;;5.45;2.00;;;7.50;69.80;;;;;;5017752;28;20037;-78
2021/05/12 03:53:14;;;;;;;7.00;2.20;;;7.40;69.90;;;;;;5034321;28;20032;-79
2021/05/12 03:55:41;;;;;;;7.50;2.53;;;7.50;69.90;;;;;;5017803;28;20102;-78
2021/05/12 03:58:08;;;;;;;10.05;3.15;;;7.40;69.90;;;;;;5052002;28;20090;-79
2021/05/12 04:00:34;;;;;;;6.78;2.97;;;7.40;70.00;;;;;;5017607;28;20032;-79
2021/05/12 04:03:00;;;;;;;7.22;2.47;;;7.50;70.20;;;;;;5017937;28;20025;-78
2021/05/12 04:05:26;;;;;;;6.32;2.75;;;7.50;70.10;;;;;;5034398;28;20094;-79
2021/05/12 04:07:52;;;;;;;6.15;2.55;;;7.50;70.10;;;;;;5034356;28;20068;-79
2021/05/12 04:10:19;;;;;;;11.63;3.20;;;7.60;70.20;;;;;;5052025;28;20479;-79
2021/05/12 04:12:45;;;;;;;6.47;2.30;;;7.60;70.60;;;;;;5034074;28;20155;-78
2021/05/12 04:15:11;;;;;;;6.20;2.72;;;7.60;70.10;;;;;;5051914;28;20056;-79
2021/05/12 04:17:38;;;;;;;10.57;2.83;;;7.50;70.10;;;;;;5034096;28;20091;-78
2021/05/12 04:20:06;;;;;;;13.82;3.22;;;7.40;70.30;;;;;;5034016;28;20078;-78
2021/05/12 04:22:32;;;;;;;8.27;3.13;;;7.40;70.60;;;;;;5033904;28;20538;-78
2021/05/12 04:24:57;;;;;;;3.63;2.35;;;7.50;70.70;;;;;;5033816;28;20192;-79
2021/05/12 04:27:23;;;;;;;6.75;2.88;;;7.50;71.10;;;;;;5017463;28;20108;-79
2021/05/12 04:29:49;;;;;;;5.72;2.50;;;7.50;70.70;;;;;;5033972;28;20033;-78
2021/05/12 04:32:15;;;;;;;8.65;3.03;;;7.50;70.70;;;;;;5033708;28;20033;-79
2021/05/12 04:34:41;;;;;;;6.50;3.90;;;7.50;70.60;;;;;;5033672;28;20530;-78
2021/05/12 04:37:07;;;;;;;17.80;5.00;;;7.60;70.70;;;;;;5016837;28;20076;-79
2021/05/12 04:39:32;;;;;;;12.40;4.30;;;7.60;70.80;;;;;;5033735;28;20094;-78
2021/05/12 04:41:58;;;;;;;18.30;6.10;;;7.60;70.90;;;;;;5033869;28;20525;-79
2021/05/12 04:44:24;;;;;;;11.68;4.60;;;7.60;71.20;;;;;;5033777;28;20059;-78
2021/05/12 04:46:50;;;;;;;12.50;5.28;;;7.60;71.30;;;;;;5033601;28;20467;-79
2021/05/12 04:49:17;;;;;;;5.97;3.80;;;7.70;71.40;;;;;;5051363;28;20032;-79
2021/05/12 04:51:43;;;;;;;9.98;3.90;;;7.70;71.30;;;;;;5051351;28;20113;-79
2021/05/12 04:54:11;;;;;;;17.17;5.13;;;7.80;71.30;;;;;;5017111;28;20459;-79
2021/05/12 04:56:37;;;;;;;12.02;5.25;;;7.90;71.30;;;;;;5017489;28;20033;-79
2021/05/12 04:59:03;;;;;;;12.93;6.38;;;7.90;71.30;;;;;;5033297;28;20042;-79
2021/05/12 05:01:29;;;;;;;10.75;5.22;;;8.00;71.30;;;;;;5016910;28;20033;-79
2021/05/12 05:03:55;;;;;;;12.73;4.78;;;8.00;71.40;;;;;;5051174;28;20383;-78
2021/05/12 05:06:21;;;;;;;19.80;5.40;;;8.00;71.50;;;;;;5016633;28;20029;-79
2021/05/12 05:08:46;;;;;;;11.40;5.30;;;8.10;71.60;;;;;;5033172;28;20044;-78
2021/05/12 05:11:12;;;;;;;11.30;4.82;;;8.20;71.70;;;;;;5016737;28;20079;-78
2021/05/12 05:13:38;;;;;;;12.77;5.75;;;8.30;71.70;;;;;;5016732;28;20475;-79
2021/05/12 05:16:04;;;;;;;9.63;5.15;;;8.30;71.80;;;;;;5050909;28;20025;-78
2021/05/12 05:18:31;;;;;;;19.80;5.88;;;8.40;72.00;;;;;;5051002;28;20025;-79
2021/05/12 05:20:57;;;;;;;12.70;5.70;;;8.40;72.00;;;;;;5050930;28;20036;-79
2021/05/12 05:23:24;;;;;;;14.73;5.97;;;8.50;72.20;;;;;;5016975;28;20029;-78
2021/05/12 05:25:52;;;;;;;17.60;6.45;;;8.50;72.30;;;;;;5017657;28;20030;-79
2021/05/12 05:28:18;;;;;;;13.48;5.53;;;8.60;72.60;;;;;;5051436;28;20109;-79
2021/05/12 05:30:44;;;;;;;12.68;5.57;;;8.70;72.80;;;;;;5017359;28;20124;-78
2021/05/12 05:33:09;;;;;;;11.02;4.85;;;8.70;72.90;;;;;;5016627;28;20036;-79
2021/05/12 05:35:35;;;;;;;10.63;5.65;;;8.80;73.00;;;;;;5032847;28;20091;-78
2021/05/12 05:38:01;;;;;;;13.68;5.20;;;8.80;73.10;;;;;;5016355;28;20135;-79
2021/05/12 05:40:27;;;;;;;16.67;6.03;;;8.70;73.40;;;;;;5016289;28;20441;-79
2021/05/12 05:42:58;;;;;;;12.35;5.43;;;8.70;73.90;;;;;;5016537;28;20029;-78
2021/05/12 05:45:25;;;;;;;21.60;5.38;;;8.70;74.10;;;;;;5033163;28;20478;-79
2021/05/12 05:47:51;;;;;;;9.82;5.22;;;8.80;74.30;;;;;;5050768;28;20112;-81
2021/05/12 05:50:17;;;;;;;8.18;5.15;;;9.00;74.40;;;;;;5016326;28;20033;-78
2021/05/12 05:52:43;;;;;;;11.68;5.03;;;9.10;74.50;;;;;;5050590;28;20098;-78
2021/05/12 05:55:09;;;;;;;12.40;5.50;;;9.20;74.60;;;;;;5050493;28;20471;-78
2021/05/12 05:57:35;;;;;;;10.52;5.90;;;9.40;74.70;;;;;;5050633;28;20052;-80
2021/05/12 06:00:01;;;;;;;11.45;5.25;;;9.60;74.60;;;;;;5016242;28;20443;-79
2021/05/12 06:02:26;;;;;;;18.80;5.88;;;9.80;74.70;;;;;;5032501;28;20025;-79
2021/05/12 06:04:52;;;;;;;13.48;5.15;;;10.30;76.00;;;;;;5032669;28;20061;-79
2021/05/12 06:07:18;;;;;;;16.67;4.85;;;11.50;75.90;;;;;;5016047;28;20119;-79
2021/05/12 06:09:43;;;;;;;7.93;4.55;;;12.50;73.40;;;;;;5050437;28;20029;-79
2021/05/12 06:12:09;;;;;;;14.60;4.10;;;12.80;71.70;;;;;;5032652;28;20083;-78
2021/05/12 06:14:35;;;;;;;19.52;4.60;;;12.70;71.10;;;;;;5016227;28;20033;-79
2021/05/12 06:17:00;;;;;;;15.35;4.15;;;12.60;71.20;;;;;;5032517;28;20025;-78
2021/05/12 06:19:26;;;;;;;11.85;3.90;;;12.40;71.60;;;;;;5018419;28;20037;-79
2021/05/12 06:21:52;;;;;;;16.33;4.55;;;12.20;71.90;;;;;;5036191;28;20033;-79
2021/05/12 06:24:18;;;;;;;14.20;4.45;;;12.10;72.20;;;;;;5036175;28;20033;-79
2021/05/12 06:26:46;;;;;;;16.92;4.57;;;12.10;72.70;;;;;;5036141;28;20434;-78
2021/05/12 06:29:12;;;;;;;19.83;5.95;;;12.20;73.60;;;;;;5019832;28;20037;-79
2021/05/12 06:31:38;;;;;;;16.23;3.88;;;12.60;74.30;;;;;;5019669;28;20033;-79
2021/05/12 06:34:04;;;;;;;20.52;3.90;;;13.30;74.00;;;;;;5036148;28;20029;-79
2021/05/12 06:36:29;;;;;;;8.95;3.13;;;14.20;73.20;;;;;;5054252;28;20044;-79
2021/05/12 06:38:55;;;;;;;8.25;3.38;;;14.80;71.40;;;;;;5035989;28;20061;-79
2021/05/12 06:41:21;;;;;;;7.20;2.25;;;14.90;69.90;;;;;;5036254;28;20095;-79
2021/05/12 06:43:48;;;;;;;19.50;3.88;;;14.60;69.60;;;;;;5019471;28;20033;-80
2021/05/12 06:46:15;;;;;;;12.50;2.35;;;14.20;69.70;;;;;;5019737;28;20041;-79
2021/05/12 06:48:41;;;;;;;9.45;2.83;;;13.90;69.90;;;;;;5035987;28;20104;-79
2021/05/12 06:51:06;;;;;;;8.63;2.40;;;13.60;70.40;;;;;;5035894;28;20167;-78
2021/05/12 06:53:34;;;;;;;7.90;2.28;;;13.40;70.90;;;;;;5035308;28;20036;-78
2021/05/12 06:56:00;;;;;;;4.75;1.60;;;13.20;71.30;;;;;;5019210;28;20029;-78
2021/05/12 06:58:26;;;;;;;7.97;1.98;;;13.10;71.60;;;;;;5035486;28;20037;-79
2021/05/12 07:00:52;;;;;;;3.72;1.40;;;13.00;72.00;;;;;;5053231;28;20021;-79
2021/05/12 07:03:21;;;;;;;3.95;1.42;;;12.90;72.20;;;;;;5018852;28;20028;-79
2021/05/12 07:05:46;;;;;;;10.40;2.03;;;12.90;72.80;;;;;;5035507;28;20028;-79
2021/05/12 07:08:12;;;;;;;8.57;1.50;;;13.50;74.10;;;;;;5053170;28;20265;-80
2021/05/12 07:10:38;;;;;;;2.95;1.38;;;14.70;73.20;;;;;;5053155;28;20033;-80
2021/05/12 07:13:04;;;;;;;5.82;1.35;;;15.70;71.70;;;;;;5035347;28;20528;-79
2021/05/12 07:15:30;;;;;;;10.23;1.42;;;16.70;70.40;;;;;;5018966;28;20477;-79
2021/05/12 07:17:56;;;;;;;7.72;1.55;;;17.60;69.10;;;;;;5034418;28;20029;-79
2021/05/12 07:20:21;;;;;;;11.10;1.85;;;18.90;68.10;;;;;;5018274;28;20437;-80
2021/05/12 07:22:48;;;;;;;5.03;1.38;;;20.40;65.70;;;;;;5018129;28;20025;-81
2021/05/12 07:25:15;;;;;;;6.00;1.30;;;21.60;62.60;;;;;;5052557;28;20639;-80
2021/05/12 07:27:41;;;;;;;5.60;1.00;;;22.60;60.60;;;;;;5035610;28;20021;-80
2021/05/12 07:30:07;;;;;;;3.45;1.25;;;23.40;58.10;;;;;;5033834;28;20036;-78
2021/05/12 07:32:33;;;;;;;8.75;1.38;;;23.30;55.70;;;;;;5052808;28;20502;-80
2021/05/12 07:34:59;;;;;;;6.70;1.15;;;23.40;55.40;;;;;;5017818;28;20037;-80
2021/05/12 07:37:25;;;;;;;4.53;1.15;;;23.60;55.10;;;;;;5017727;28;20068;-79
2021/05/12 07:39:51;;;;;;;4.35;1.30;;;24.00;53.60;;;;;;5034306;28;20407;-81
2021/05/12 07:42:19;;;;;;;3.90;1.17;;;24.00;52.70;;;;;;5034464;28;20021;-78
2021/05/12 07:44:46;;;;;;;5.72;1.50;;;24.00;52.30;;;;;;5051986;28;20509;-79
2021/05/12 07:47:12;;;;;;;2.42;0.65;;;24.10;51.60;;;;;;5034499;28;20048;-80
2021/05/12 07:49:38;;;;;;;2.92;0.73;;;24.40;51.60;;;;;;5052041;28;20025;-79
2021/05/12 07:52:12;;;;;;;6.10;0.88;;;24.40;51.40;;;;;;5018153;28;20116;-80
2021/05/12 07:54:38;;;;;;;4.63;1.23;;;24.50;51.20;;;;;;5053041;28;20498;-80
2021/05/12 07:57:04;;;;;;;3.38;0.93;;;24.80;50.30;;;;;;5018210;28;20032;-81
2021/05/12 07:59:30;;;;;;;2.55;0.82;;;25.30;49.90;;;;;;5017625;28;20033;-80
2021/05/12 08:01:56;;;;;;;5.93;1.23;;;25.80;49.20;;;;;;5017273;28;20033;-80
2021/05/12 08:04:21;;;;;;;11.35;1.63;;;26.30;48.50;;;;;;5051296;28;20029;-81
2021/05/12 08:06:47;;;;;;;3.58;1.10;;;26.60;47.80;;;;;;5048165;28;20097;-81
2021/05/12 08:09:13;;;;;;;4.38;1.30;;;26.70;46.90;;;;;;5016991;28;20028;-80
2021/05/12 08:11:38;;;;;;;4.05;1.13;;;26.80;46.30;;;;;;5033307;28;20041;-80
2021/05/12 08:14:04;;;;;;;2.50;0.70;;;26.70;46.00;;;;;;5016562;28;20180;-80
2021/05/12 08:16:30;;;;;;;3.03;0.95;;;26.70;45.70;;;;;;5032364;28;20454;-82
2021/05/12 08:18:56;;;;;;;1.98;0.90;;;26.80;46.00;;;;;;5033419;28;20053;-81
2021/05/12 08:21:22;;;;;;;2.28;1.08;;;27.20;45.30;;;;;;5051380;28;20454;-81
2021/05/12 08:23:47;;;;;;;3.95;0.88;;;27.50;44.70;;;;;;5033332;28;20124;-80
2021/05/12 08:26:13;;;;;;;3.25;1.00;;;27.60;44.30;;;;;;5016568;28;20132;-80
2021/05/12 08:28:40;;;;;;;4.50;0.90;;;27.60;44.20;;;;;;5016782;28;20032;-80
2021/05/12 08:31:06;;;;;;;4.28;1.08;;;27.60;44.10;;;;;;5033866;28;20078;-80
2021/05/12 08:33:32;;;;;;;1.95;0.90;;;28.10;44.10;;;;;;5017046;28;20135;-80
2021/05/12 08:35:58;;;;;;;2.05;0.95;;;28.50;43.10;;;;;;5016937;28;20037;-80
2021/05/12 08:38:25;;;;;;;2.42;0.80;;;28.00;42.00;;;;;;5032471;28;20103;-81
2021/05/12 08:40:57;;;;;;;3.90;0.80;;;27.20;42.50;;;;;;5032345;28;20486;-81
2021/05/12 08:43:27;;;;;;;2.60;0.65;;;27.40;43.20;;;;;;5032362;28;20029;-81
2021/05/12 08:45:53;;;;;;;3.65;1.30;;;27.60;42.60;;;;;;5050143;28;20017;-81
2021/05/12 08:48:18;;;;;;;2.60;1.20;;;27.10;42.90;;;;;;5032083;28;20037;-80
2021/05/12 08:50:46;;;;;;;3.78;0.90;;;27.30;43.30;;;;;;5015342;28;20425;-80
2021/05/12 08:53:12;;;;;;;2.20;0.90;;;27.40;42.50;;;;;;5032369;28;20052;-80
2021/05/12 08:55:38;;;;;;;4.75;0.73;;;27.30;42.60;;;;;;5032763;28;20040;-82
2021/05/12 08:58:04;;;;;;;2.08;0.90;;;27.50;43.20;;;;;;5033272;28;20077;-81
2021/05/12 09:00:30;;;;;;;6.28;1.25;;;28.10;42.70;;;;;;5015920;28;20040;-82
2021/05/12 09:03:01;;;;;;;2.92;0.60;;;28.60;42.40;;;;;;5033257;28;20052;-82
2021/05/12 09:05:28;;;;;;;3.05;0.60;;;29.10;41.60;;;;;;5032997;28;20517;-80
2021/05/12 09:07:55;;;;;;;2.88;0.70;;;28.60;40.70;;;;;;5033546;28;20033;-81
2021/05/12 09:10:22;;;;;;;1.85;0.70;;;28.10;40.80;;;;;;5033580;28;20036;-81
2021/05/12 09:12:48;;;;;;;3.03;0.82;;;27.30;41.10;;;;;;5034336;28;20051;-81
2021/05/12 09:15:17;;;;;;;3.28;0.80;;;27.80;42.00;;;;;;5035844;28;20037;-80
2021/05/12 09:17:45;;;;;;;1.17;0.40;;;28.40;41.70;;;;;;5034861;28;20075;-81
2021/05/12 09:20:34;;;;;;;1.45;0.47;;;29.10;41.10;;;;;;5052540;28;20036;-80
2021/05/12 09:22:59;;;;;;;2.95;0.50;;;28.80;40.00;;;;;;5051660;28;20082;-80
2021/05/12 09:25:26;;;;;;;1.92;0.82;;;28.10;40.20;;;;;;5034495;28;20038;-80
2021/05/12 09:28:07;;;;;;;2.53;0.75;;;28.30;41.00;;;;;;5035142;28;20108;-80
2021/05/12 09:30:36;;;;;;;1.10;0.50;;;28.80;40.60;;;;;;5053046;28;20025;-80
2021/05/12 09:33:01;;;;;;;1.00;0.60;;;29.00;39.70;;;;;;5034921;28;20095;-80
2021/05/12 09:35:27;;;;;;;3.20;0.47;;;28.20;39.50;;;;;;5018406;28;20068;-80
2021/05/12 09:37:53;;;;;;;1.65;0.50;;;27.80;40.50;;;;;;5034626;28;20127;-81
2021/05/12 09:40:21;;;;;;;1.38;0.38;;;27.60;40.20;;;;;;5018477;28;20042;-80
2021/05/12 09:43:00;;;;;;;1.00;0.45;;;26.90;39.80;;;;;;5018196;28;20040;-79
2021/05/12 09:45:28;;;;;;;2.33;0.50;;;26.00;40.70;;;;;;5034519;28;20025;-77
2021/05/12 09:47:58;;;;;;;1.60;0.50;;;25.10;40.50;;;;;;5052398;28;20371;-80
2021/05/12 09:50:31;;;;;;;3.78;0.70;;;24.30;41.10;;;;;;5015062;28;20373;-81
2021/05/12 09:52:59;;;;;;;2.35;0.52;;;23.50;41.60;;;;;;5019095;28;20021;-77
2021/05/12 09:55:37;;;;;;;1.67;0.50;;;22.60;42.20;;;;;;5037470;28;20112;-79
2021/05/12 09:58:06;;;;;;;1.33;0.50;;;21.80;42.70;;;;;;5035456;28;20025;-77
2021/05/12 10:00:35;;;;;;;2.10;0.50;;;21.20;43.20;;;;;;5021479;28;20111;-79
2021/05/12 10:03:04;;;;;;;1.08;0.43;;;20.70;43.60;;;;;;5055155;28;20096;-77
2021/05/12 10:05:52;;;;;;;3.03;1.15;;;20.20;44.20;;;;;;5055251;28;20391;-79
2021/05/12 10:08:22;;;;;;;2.42;0.40;;;19.90;44.90;;;;;;5055713;28;20419;-77
2021/05/12 10:10:53;;;;;;;3.25;0.63;;;19.70;45.20;;;;;;5037527;28;20032;-77
2021/05/12 10:13:19;;;;;;;1.55;0.60;;;19.50;45.50;;;;;;5055758;28;20040;-78
2021/05/12 10:15:45;;;;;;;1.25;0.43;;;19.40;45.70;;;;;;5037826;28;20033;-76
2021/05/12 10:18:11;;;;;;;1.92;0.60;;;19.20;45.90;;;;;;5021252;28;20131;-78
2021/05/12 10:20:38;;;;;;;1.77;0.60;;;19.10;46.20;;;;;;5037782;28;20525;-77
2021/05/12 10:23:04;;;;;;;3.45;0.82;;;19.00;46.60;;;;;;5055809;28;20009;-78
2021/05/12 10:25:30;;;;;;;6.00;0.52;;;18.90;46.70;;;;;;5021046;28;20056;-77
2021/05/12 10:27:58;;;;;;;2.85;0.77;;;18.80;46.80;;;;;;5037917;28;20435;-79
2021/05/12 10:30:24;;;;;;;0.70;0.30;;;18.70;46.90;;;;;;5037385;28;20406;-76
2021/05/12 10:32:54;;;;;;;0.70;0.47;;;18.60;47.00;;;;;;5021433;28;20067;-76
2021/05/12 10:35:40;;;;;;;0.75;0.30;;;18.50;47.30;;;;;;5055458;28;20424;-77
2021/05/12 10:38:30;;;;;;;2.78;0.63;;;18.40;47.40;;;;;;5017257;28;20064;-81
2021/05/12 10:40:56;;;;;;;;;;;18.30;47.60;;;;;;5052693;28;20029;-77
2021/05/12 10:43:25;;;;;;;3.35;0.50;;;18.30;47.50;;;;;;5037678;28;19912;-78
2021/05/12 10:46:34;;;;;;;1.42;0.68;;;18.40;47.60;;;;;;5055470;28;20025;-79
2021/05/12 10:48:40;;;;;;;2.30;0.50;;;18.50;48.00;;;;;;5049514;28;20337;-83
2021/05/12 10:51:22;;;;;;;2.72;0.63;;;18.60;48.10;;;;;;5055279;28;20436;-78
2021/05/12 10:53:49;;;;;;;1.63;0.47;;;18.70;48.20;;;;;;5050560;28;20458;-78
2021/05/12 10:56:16;;;;;;;1.30;0.60;;;18.70;48.00;;;;;;5037063;28;20033;-80
2021/05/12 10:58:55;;;;;;;5.32;0.80;;;18.60;48.00;;;;;;5036654;28;20029;-78
2021/05/12 11:01:22;;;;;;;1.83;0.30;;;18.70;48.20;;;;;;5036948;28;20029;-78
2021/05/12 11:03:51;;;;;;;2.75;0.60;;;18.80;48.00;;;;;;5036880;28;20029;-78
2021/05/12 11:06:22;;;;;;;1.80;0.60;;;18.80;48.10;;;;;;5037331;28;20108;-78
2021/05/12 11:09:08;;;;;;;0.90;0.40;;;18.80;48.00;;;;;;5055394;28;20017;-79
2021/05/12 11:11:43;;;;;;;2.10;0.85;;;18.70;48.00;;;;;;5054707;28;20021;-79
2021/05/12 11:14:23;;;;;;;1.45;0.40;;;18.50;48.10;;;;;;5036668;28;20084;-79
2021/05/12 11:17:22;;;;;;;4.55;0.63;;;18.30;48.70;;;;;;5055239;28;20028;-78
2021/05/12 11:19:56;;;;;;;0.85;0.47;;;18.30;49.20;;;;;;5036952;28;20351;-79
2021/05/12 11:25:13;;;;;;;1.67;0.60;;;18.60;49.10;;;;;;5055017;28;20443;-79
2021/05/12 11:33:36;;;;;;;3.70;0.57;;;18.80;49.20;;;;;;5055555;28;20386;-79
2021/05/12 11:36:10;;;;;;;2.35;0.60;;;18.80;49.00;;;;;;5019783;28;20030;-78
2021/05/12 11:38:37;;;;;;;2.63;0.60;;;18.70;48.60;;;;;;5036991;28;20053;-79
2021/05/12 11:41:05;;;;;;;1.60;0.52;;;18.50;48.90;;;;;;5036984;28;20107;-79
2021/05/12 11:43:42;;;;;;;3.58;0.57;;;18.30;49.00;;;;;;5036865;28;20093;-78
2021/05/12 11:46:11;;;;;;;0.77;0.40;;;18.10;49.10;;;;;;5036937;28;20028;-78
2021/05/12 11:48:38;;;;;;;1.95;0.70;;;17.90;49.30;;;;;;5036958;28;20053;-80
2021/05/12 11:51:04;;;;;;;1.38;0.50;;;17.80;49.70;;;;;;5037110;28;20033;-80
2021/05/12 11:53:34;;;;;;;3.35;0.85;;;17.70;49.80;;;;;;5036589;28;20029;-78
2021/05/12 11:55:59;;;;;;;0.57;0.30;;;17.70;50.00;;;;;;5036666;28;20021;-79
2021/05/12 11:58:26;;;;;;;2.90;0.68;;;17.70;49.90;;;;;;5036497;28;20055;-79
2021/05/12 12:00:53;;;;;;;1.52;0.60;;;17.60;49.90;;;;;;5036837;28;20022;-79
2021/05/12 12:03:23;;;;;;;1.25;0.60;;;17.60;50.10;;;;;;5004135;28;20025;-78
2021/05/12 12:06:05;;;;;;;;;;;17.50;50.20;;;;;;5037447;28;20029;-80
2021/05/12 12:08:32;;;;;;;2.08;0.50;;;17.60;50.40;;;;;;5037189;28;19986;-79
2021/05/12 12:11:13;;;;;;;1.67;0.50;;;17.70;50.40;;;;;;5036733;28;20061;-81
2021/05/12 12:13:40;;;;;;;0.88;0.38;;;17.70;50.00;;;;;;5036295;28;20036;-80
2021/05/12 12:16:11;;;;;;;3.40;1.20;;;17.60;50.00;;;;;;5034833;28;20387;-78
2021/05/12 12:18:42;;;;;;;3.50;0.68;;;17.50;50.30;;;;;;5035544;28;20083;-79
2021/05/12 12:21:10;;;;;;;3.65;0.55;;;17.50;50.50;;;;;;5035455;28;20033;-81
2021/05/12 12:23:40;;;;;;;2.28;0.88;;;17.60;50.60;;;;;;5035844;28;20044;-81
2021/05/12 12:26:16;;;;;;;1.45;0.57;;;17.60;50.70;;;;;;5035518;28;20479;-79
2021/05/12 12:29:13;;;;;;;2.75;0.50;;;17.70;50.80;;;;;;5035924;28;20032;-80
2021/05/12 12:31:48;;;;;;;10.40;0.70;;;17.90;50.80;;;;;;5014848;28;20041;-80
2021/05/12 12:34:23;;;;;;;7.68;0.75;;;18.20;50.60;;;;;;5036458;28;20071;-79
2021/05/12 12:37:04;;;;;;;1.60;0.80;;;18.40;50.40;;;;;;5024034;28;20418;-79
2021/05/12 12:39:58;;;;;;;5.40;0.60;;;18.50;50.20;;;;;;5030551;28;20036;-79
2021/05/12 12:42:28;;;;;;;1.42;0.50;;;18.50;50.00;;;;;;5032943;28;20052;-80
2021/05/12 12:44:55;;;;;;;3.10;0.45;;;18.60;49.90;;;;;;5018580;28;20013;-78
2021/05/12 12:47:23;;;;;;;2.40;0.60;;;18.60;49.70;;;;;;5023936;28;20032;-79
2021/05/12 12:50:06;;;;;;;4.20;0.73;;;18.50;49.90;;;;;;5016195;28;20079;-81
2021/05/12 12:52:40;;;;;;;1.95;0.60;;;18.40;50.00;;;;;;5006169;28;20033;-80
2021/05/12 12:55:12;;;;;;;4.03;0.60;;;18.20;50.10;;;;;;5019672;28;20115;-80
2021/05/12 12:57:44;;;;;;;3.72;0.90;;;18.10;50.00;;;;;;5044970;28;20025;-80
2021/05/12 13:00:13;;;;;;;1.98;0.50;;;18.00;50.20;;;;;;5034773;28;20125;-79
2021/05/12 13:02:40;;;;;;;2.83;0.50;;;17.90;50.20;;;;;;5033679;28;20021;-81